Time;durP1;ratioP1;P1;durP2;ratioP2;P2;SDS_P1;SDS_P2;PMS_P1;PMS_P2;Temp;Humidity;BMP_temperature;BMP_pressure;BME280_temperature;BME280_humidity;BME280_pressure;Samples;Min_cycle;Max_cycle;Signal;HPM_P1;HPM_P2
2022/06/17 01:12:33;;;;;;;10.65;8.38;;;16.50;99.90;;;;;;7386988;19;20031;-75
2022/06/17 01:15:04;;;;;;;11.75;8.57;;;16.40;99.90;;;;;;7390309;19;20028;-75
2022/06/17 01:17:34;;;;;;;14.25;9.23;;;16.50;99.90;;;;;;7395840;19;20356;-74
2022/06/17 01:20:04;;;;;;;13.43;9.60;;;16.40;99.90;;;;;;7396312;19;20014;-74
2022/06/17 01:22:41;;;;;;;13.75;8.95;;;16.50;99.90;;;;;;7395025;19;20014;-74
2022/06/17 01:25:14;;;;;;;12.55;9.02;;;16.40;99.90;;;;;;7394037;19;20014;-74
2022/06/17 01:27:45;;;;;;;12.27;8.82;;;16.30;99.90;;;;;;7396320;19;20022;-74
2022/06/17 01:30:17;;;;;;;11.65;9.18;;;16.40;99.90;;;;;;7397832;19;20018;-75
2022/06/17 01:32:50;;;;;;;13.85;9.88;;;16.30;99.90;;;;;;7395492;19;20010;-74
2022/06/17 01:35:21;;;;;;;12.13;9.18;;;16.50;99.90;;;;;;7394749;19;20011;-75
2022/06/17 01:37:53;;;;;;;12.85;9.57;;;16.50;99.90;;;;;;7394564;19;20085;-74
2022/06/17 01:40:24;;;;;;;14.25;9.45;;;16.30;99.90;;;;;;7393202;19;20027;-74
2022/06/17 01:42:53;;;;;;;12.63;9.77;;;16.40;99.90;;;;;;7392868;19;20062;-74
2022/06/17 01:45:24;;;;;;;15.45;10.38;;;16.00;99.90;;;;;;7395845;19;20048;-74
2022/06/17 01:47:54;;;;;;;13.10;9.70;;;16.20;99.90;;;;;;7393386;19;20018;-74
2022/06/17 01:50:27;;;;;;;13.63;9.65;;;16.20;99.90;;;;;;7391750;19;20015;-74
2022/06/17 01:53:01;;;;;;;12.02;9.35;;;16.30;99.90;;;;;;7391459;19;20491;-74
2022/06/17 01:55:34;;;;;;;12.98;9.30;;;16.30;99.90;;;;;;7390510;19;20078;-75
2022/06/17 01:58:07;;;;;;;12.40;9.23;;;16.30;99.90;;;;;;7391347;19;20022;-74
2022/06/17 02:00:40;;;;;;;13.75;9.90;;;16.10;99.90;;;;;;7394902;19;20022;-74
2022/06/17 02:03:14;;;;;;;12.38;9.20;;;16.90;99.90;;;;;;7395577;19;20015;-75
2022/06/17 02:05:47;;;;;;;11.57;9.75;;;16.20;99.90;;;;;;7389280;19;20007;-75
2022/06/17 02:08:22;;;;;;;16.15;10.75;;;16.20;99.90;;;;;;7399350;19;20085;-75
2022/06/17 02:10:52;;;;;;;13.35;10.32;;;16.00;99.90;;;;;;7398232;19;20014;-75
2022/06/17 02:13:21;;;;;;;18.25;9.85;;;16.20;99.90;;;;;;7402657;19;20035;-74
2022/06/17 02:15:52;;;;;;;12.50;9.40;;;16.10;99.90;;;;;;7396634;19;20021;-74
2022/06/17 02:18:22;;;;;;;12.43;9.45;;;16.00;99.90;;;;;;7399526;19;20015;-74
2022/06/17 02:20:55;;;;;;;14.73;9.80;;;16.10;99.90;;;;;;7398287;19;20387;-75
2022/06/17 02:23:29;;;;;;;14.52;10.43;;;16.10;99.90;;;;;;7397405;19;20018;-74
2022/06/17 02:26:00;;;;;;;14.60;10.55;;;16.00;99.90;;;;;;7398025;19;20483;-75
2022/06/17 02:28:31;;;;;;;15.65;10.20;;;16.10;99.90;;;;;;7400552;19;20019;-74
2022/06/17 02:31:02;;;;;;;14.45;10.77;;;16.10;99.90;;;;;;7402091;19;20387;-74
2022/06/17 02:33:32;;;;;;;14.13;10.95;;;15.80;99.90;;;;;;7398332;19;20715;-75
2022/06/17 02:36:09;;;;;;;15.20;10.60;;;15.80;99.90;;;;;;7397714;19;20104;-74
2022/06/17 02:38:40;;;;;;;14.18;10.32;;;16.00;99.90;;;;;;7401076;19;20044;-75
2022/06/17 02:41:14;;;;;;;12.68;9.98;;;15.80;99.90;;;;;;7397954;19;20014;-75
2022/06/17 02:43:46;;;;;;;11.98;9.75;;;15.90;99.90;;;;;;7399283;19;20088;-75
2022/06/17 02:46:18;;;;;;;12.95;10.30;;;16.00;99.90;;;;;;7397161;19;20413;-76
2022/06/17 02:48:51;;;;;;;14.80;10.13;;;15.50;99.90;;;;;;7400309;19;20010;-75
2022/06/17 02:51:20;;;;;;;13.60;9.38;;;15.80;99.90;;;;;;7397365;19;20010;-75
2022/06/17 02:53:52;;;;;;;11.77;9.27;;;15.40;99.90;;;;;;7398995;19;20018;-75
2022/06/17 02:56:24;;;;;;;14.07;10.20;;;15.80;99.90;;;;;;7399479;19;20029;-74
2022/06/17 02:59:05;;;;;;;14.30;10.07;;;15.60;99.90;;;;;;7400272;19;20044;-75
2022/06/17 03:01:37;;;;;;;14.80;10.23;;;15.50;99.90;;;;;;7398234;19;20036;-75
2022/06/17 03:04:17;;;;;;;14.00;9.70;;;15.60;99.90;;;;;;7397921;19;20019;-74
2022/06/17 03:06:49;;;;;;;13.38;10.10;;;15.40;99.90;;;;;;7395751;19;20010;-75
2022/06/17 03:09:27;;;;;;;14.10;10.00;;;15.50;99.90;;;;;;7398439;19;20500;-75
2022/06/17 03:11:59;;;;;;;13.30;9.95;;;15.60;99.90;;;;;;7395212;19;20022;-74
2022/06/17 03:14:31;;;;;;;12.80;9.60;;;15.40;99.90;;;;;;7396970;19;20023;-75
2022/06/17 03:17:04;;;;;;;15.25;10.23;;;15.40;99.90;;;;;;7394099;19;20486;-75
2022/06/17 03:19:36;;;;;;;11.63;9.85;;;15.40;99.90;;;;;;7396357;19;20703;-75
2022/06/17 03:22:06;;;;;;;12.07;9.13;;;15.30;99.90;;;;;;7395706;19;20015;-75
2022/06/17 03:24:53;;;;;;;14.32;10.02;;;15.40;99.90;;;;;;7399871;19;20025;-75
2022/06/17 03:27:28;;;;;;;12.52;9.63;;;15.40;99.90;;;;;;7398293;19;20476;-74
2022/06/17 03:29:58;;;;;;;;;;;15.40;99.90;;;;;;7398857;19;20017;-75
2022/06/17 03:32:31;;;;;;;17.38;10.18;;;15.40;99.90;;;;;;7400022;19;19914;-75
2022/06/17 03:35:00;;;;;;;11.70;9.68;;;15.30;99.90;;;;;;7399200;19;20090;-75
2022/06/17 03:37:34;;;;;;;11.63;9.57;;;15.30;99.90;;;;;;7395769;19;20011;-74
2022/06/17 03:40:19;;;;;;;13.13;10.10;;;15.40;99.90;;;;;;7400772;19;20014;-75
2022/06/17 03:42:54;;;;;;;14.32;9.48;;;15.40;99.90;;;;;;7395132;19;20014;-75
2022/06/17 03:45:25;;;;;;;;;;;15.40;99.90;;;;;;7400402;19;20011;-75
2022/06/17 03:48:00;;;;;;;12.95;9.00;;;15.30;99.90;;;;;;7394797;19;19924;-75
2022/06/17 03:50:32;;;;;;;13.90;9.30;;;15.40;99.90;;;;;;7395181;19;20080;-75
2022/06/17 03:53:04;;;;;;;13.63;9.45;;;15.20;99.90;;;;;;7394565;19;20022;-75
2022/06/17 03:55:36;;;;;;;14.00;9.00;;;15.40;99.90;;;;;;7396318;19;20483;-75
2022/06/17 03:58:06;;;;;;;15.52;9.75;;;15.40;99.90;;;;;;7393975;19;20106;-75
2022/06/17 04:00:42;;;;;;;14.35;10.00;;;15.40;99.90;;;;;;7395878;19;20019;-75
2022/06/17 04:03:16;;;;;;;13.30;9.68;;;15.40;99.90;;;;;;7393943;19;20033;-75
2022/06/17 04:05:48;;;;;;;18.63;9.73;;;15.40;99.90;;;;;;7397138;19;20018;-75
2022/06/17 04:08:17;;;;;;;13.95;9.20;;;15.50;99.90;;;;;;7395268;19;20017;-75
2022/06/17 04:10:48;;;;;;;16.48;9.32;;;15.60;99.90;;;;;;7394038;19;20018;-75
2022/06/17 04:13:20;;;;;;;12.80;9.32;;;15.50;99.90;;;;;;7394401;19;20090;-75
2022/06/17 04:15:55;;;;;;;15.40;9.00;;;15.70;99.90;;;;;;7394059;19;20541;-76
2022/06/17 04:18:27;;;;;;;12.32;8.77;;;15.40;99.90;;;;;;7396128;19;20027;-75
2022/06/17 04:20:58;;;;;;;14.90;9.30;;;15.60;99.90;;;;;;7395002;19;20035;-75
2022/06/17 04:23:33;;;;;;;14.85;9.30;;;15.50;99.90;;;;;;7395096;19;20483;-75
2022/06/17 04:26:09;;;;;;;11.90;8.70;;;15.40;99.90;;;;;;7397011;19;20022;-75
2022/06/17 04:28:43;;;;;;;13.18;8.80;;;15.60;99.90;;;;;;7394206;19;20014;-75
2022/06/17 04:31:19;;;;;;;12.88;8.70;;;15.50;99.90;;;;;;7394235;19;20027;-75
2022/06/17 04:33:53;;;;;;;14.75;8.80;;;15.50;99.90;;;;;;7393628;19;20021;-75
2022/06/17 04:36:25;;;;;;;17.70;10.02;;;15.80;99.90;;;;;;7397447;19;20022;-75
2022/06/17 04:38:58;;;;;;;18.65;9.13;;;15.70;99.90;;;;;;7395007;19;20022;-75
2022/06/17 04:41:33;;;;;;;12.98;9.18;;;15.90;99.90;;;;;;7393921;19;20010;-75
2022/06/17 04:44:05;;;;;;;14.18;8.35;;;16.00;99.90;;;;;;7395226;19;20373;-75
2022/06/17 04:46:39;;;;;;;12.05;8.55;;;15.90;99.90;;;;;;7393827;19;20022;-75
2022/06/17 04:49:09;;;;;;;12.45;9.07;;;15.70;99.90;;;;;;7394270;19;20015;-75
2022/06/17 04:51:38;;;;;;;12.80;9.27;;;15.70;99.90;;;;;;7394498;19;20523;-75
2022/06/17 04:54:08;;;;;;;11.73;8.50;;;15.70;99.90;;;;;;7393414;19;20015;-75
2022/06/17 04:56:45;;;;;;;11.77;8.32;;;15.90;99.90;;;;;;7391521;19;20074;-75
2022/06/17 04:59:37;;;;;;;12.20;9.15;;;16.00;99.90;;;;;;7392937;19;20010;-75
2022/06/17 05:02:13;;;;;;;13.60;8.90;;;15.90;99.90;;;;;;7393990;19;20023;-75
2022/06/17 05:04:42;;;;;;;13.38;9.02;;;15.90;99.90;;;;;;7396701;19;20093;-75
2022/06/17 05:07:17;;;;;;;16.73;9.10;;;15.90;99.90;;;;;;7396340;19;20010;-74
2022/06/17 05:09:50;;;;;;;14.13;9.20;;;16.00;99.90;;;;;;7393754;19;20014;-75
2022/06/17 05:12:29;;;;;;;12.57;8.23;;;15.90;99.90;;;;;;7390965;19;20014;-75
2022/06/17 05:15:02;;;;;;;13.02;9.18;;;16.30;99.90;;;;;;7394924;19;20048;-75
2022/06/17 05:17:31;;;;;;;13.40;9.10;;;16.10;99.90;;;;;;7394753;19;20014;-75
2022/06/17 05:20:02;;;;;;;14.55;9.07;;;16.10;99.90;;;;;;7395706;19;20014;-75
2022/06/17 05:22:34;;;;;;;13.35;8.85;;;16.10;99.90;;;;;;7396541;19;20052;-75
2022/06/17 05:25:07;;;;;;;12.77;8.45;;;16.10;99.90;;;;;;7381859;19;20139;-75
2022/06/17 05:27:38;;;;;;;13.40;8.43;;;15.90;99.90;;;;;;7385245;19;20019;-75
2022/06/17 05:30:08;;;;;;;12.68;9.35;;;15.90;99.90;;;;;;7384604;19;20505;-75
2022/06/17 05:32:37;;;;;;;13.20;8.95;;;15.90;99.90;;;;;;7381477;19;20614;-75
2022/06/17 05:35:07;;;;;;;12.52;8.98;;;15.80;99.90;;;;;;7381913;19;20022;-75
2022/06/17 05:37:36;;;;;;;15.13;9.05;;;16.00;99.90;;;;;;7379658;19;20022;-75
2022/06/17 05:40:08;;;;;;;11.65;8.45;;;16.20;99.90;;;;;;7385260;19;20014;-74
2022/06/17 05:42:40;;;;;;;15.35;9.48;;;15.90;99.90;;;;;;7386188;19;21293;-75
2022/06/17 05:45:11;;;;;;;14.60;8.98;;;16.10;99.90;;;;;;7392715;19;20100;-75
2022/06/17 05:47:41;;;;;;;10.55;8.43;;;16.10;99.90;;;;;;7388821;19;20015;-75
2022/06/17 05:50:12;;;;;;;12.52;8.05;;;15.60;99.90;;;;;;7387825;19;20022;-75
2022/06/17 05:52:53;;;;;;;11.88;9.30;;;16.00;99.90;;;;;;7389311;19;20025;-75
2022/06/17 05:55:24;;;;;;;14.10;8.95;;;15.90;99.90;;;;;;7389519;19;20098;-75
2022/06/17 05:57:55;;;;;;;12.57;8.85;;;15.90;99.90;;;;;;7387535;19;20015;-75
2022/06/17 06:00:25;;;;;;;12.77;8.88;;;16.00;99.90;;;;;;7389070;19;20025;-76
2022/06/17 06:02:58;;;;;;;11.48;8.52;;;16.10;99.90;;;;;;7398639;19;20030;-74
2022/06/17 06:05:29;;;;;;;12.18;8.68;;;16.10;99.90;;;;;;7394608;19;21719;-75
2022/06/17 06:07:59;;;;;;;15.23;8.75;;;15.90;99.90;;;;;;7398018;19;20019;-75
2022/06/17 06:10:29;;;;;;;12.75;8.65;;;16.00;99.90;;;;;;7397028;19;20093;-75
2022/06/17 06:13:02;;;;;;;12.38;9.25;;;16.20;99.90;;;;;;7400843;19;20014;-74
2022/06/17 06:15:35;;;;;;;14.85;8.63;;;16.20;99.90;;;;;;7392201;19;20027;-74
2022/06/17 06:18:05;;;;;;;14.00;9.95;;;16.00;99.90;;;;;;7396126;19;20426;-74
2022/06/17 06:20:35;;;;;;;14.02;9.30;;;16.30;99.90;;;;;;7395966;19;20023;-74
2022/06/17 06:23:04;;;;;;;12.48;9.05;;;16.30;99.90;;;;;;7393413;19;20026;-75
2022/06/17 06:25:33;;;;;;;11.00;8.63;;;14.00;99.90;;;;;;7390370;19;20458;-75
2022/06/17 06:28:10;;;;;;;13.68;8.52;;;16.20;99.90;;;;;;7401738;19;20418;-75
2022/06/17 06:30:39;;;;;;;11.63;9.02;;;16.40;99.90;;;;;;7400544;19;20031;-75
2022/06/17 06:33:09;;;;;;;14.43;9.43;;;16.40;99.90;;;;;;7397055;19;20025;-74
2022/06/17 06:35:39;;;;;;;14.55;9.10;;;16.40;99.90;;;;;;7399556;19;20348;-75
2022/06/17 06:38:09;;;;;;;15.15;9.20;;;16.70;99.90;;;;;;7397036;19;20052;-75
2022/06/17 06:40:38;;;;;;;13.85;9.07;;;16.50;99.90;;;;;;7397328;19;20018;-75
2022/06/17 06:43:15;;;;;;;12.45;9.18;;;16.50;99.90;;;;;;7397994;19;20022;-75
2022/06/17 06:45:46;;;;;;;12.60;8.40;;;16.70;99.90;;;;;;7398577;19;20018;-75
2022/06/17 06:48:16;;;;;;;13.68;9.27;;;16.70;99.90;;;;;;7398148;19;20018;-75
2022/06/17 06:50:46;;;;;;;12.13;8.82;;;16.50;99.90;;;;;;7398047;19;20078;-75
2022/06/17 06:53:15;;;;;;;12.77;8.82;;;16.70;99.90;;;;;;7396007;19;20547;-75
2022/06/17 06:55:44;;;;;;;15.38;9.10;;;16.60;99.90;;;;;;7397564;19;20027;-75
2022/06/17 06:58:19;;;;;;;17.63;9.30;;;16.60;99.90;;;;;;7396650;19;20028;-75
2022/06/17 07:00:50;;;;;;;12.63;9.00;;;16.60;99.90;;;;;;7395870;19;20021;-75
2022/06/17 07:03:21;;;;;;;15.70;9.23;;;16.60;99.90;;;;;;7400710;19;20017;-75
2022/06/17 07:05:52;;;;;;;12.88;9.50;;;16.60;99.90;;;;;;7397080;19;20026;-75
2022/06/17 07:08:26;;;;;;;13.88;10.15;;;16.70;99.90;;;;;;7399023;19;20360;-76
2022/06/17 07:10:59;;;;;;;15.55;9.57;;;16.70;99.90;;;;;;7396071;19;20018;-75
2022/06/17 07:13:32;;;;;;;16.00;9.00;;;16.80;99.90;;;;;;7396245;19;20010;-75
2022/06/17 07:16:02;;;;;;;13.80;9.00;;;16.70;99.90;;;;;;7395166;19;20018;-75
2022/06/17 07:18:33;;;;;;;16.45;9.30;;;16.80;99.90;;;;;;7397935;19;20512;-75
2022/06/17 07:21:06;;;;;;;14.90;9.32;;;17.10;99.90;;;;;;7397968;19;20002;-75
2022/06/17 07:23:37;;;;;;;12.05;8.50;;;17.00;99.90;;;;;;7396848;19;20470;-75
2022/06/17 07:26:09;;;;;;;12.75;8.60;;;17.20;99.90;;;;;;7399232;19;20803;-75
2022/06/17 07:28:41;;;;;;;12.38;8.45;;;17.10;99.90;;;;;;7400098;19;20018;-75
2022/06/17 07:31:10;;;;;;;14.05;8.15;;;17.20;99.90;;;;;;7395505;19;20017;-75
2022/06/17 07:33:38;;;;;;;15.02;9.02;;;17.30;99.90;;;;;;7395663;19;20010;-75
2022/06/17 07:39:53;;;;;;;14.70;10.13;;;17.20;99.90;;;;;;7395263;19;20014;-75
2022/06/17 07:41:43;;;;;;;15.05;9.25;;;17.50;99.90;;;;;;7396506;19;20010;-75
2022/06/17 07:44:15;;;;;;;12.50;8.30;;;17.30;99.90;;;;;;7393775;19;20090;-75
2022/06/17 07:46:44;;;;;;;13.00;8.50;;;17.30;99.90;;;;;;7395598;19;20475;-75
2022/06/17 07:49:13;;;;;;;14.40;8.70;;;17.40;99.90;;;;;;7395463;19;20015;-75
2022/06/17 07:51:42;;;;;;;12.15;8.05;;;17.50;99.90;;;;;;7397085;19;20007;-75
2022/06/17 07:54:11;;;;;;;13.32;8.75;;;17.60;99.90;;;;;;7395200;19;20521;-75
2022/06/17 07:56:40;;;;;;;12.80;8.25;;;17.60;99.90;;;;;;7398336;19;20460;-75
2022/06/17 07:59:09;;;;;;;12.05;8.35;;;17.70;99.90;;;;;;7395584;19;20382;-76
2022/06/17 08:01:41;;;;;;;10.35;7.65;;;17.70;99.90;;;;;;7396841;19;20024;-75
2022/06/17 08:04:10;;;;;;;9.88;7.30;;;17.90;99.90;;;;;;7396777;19;20014;-75
2022/06/17 08:06:39;;;;;;;13.50;8.07;;;17.70;99.90;;;;;;7396267;19;20590;-75
2022/06/17 08:09:08;;;;;;;12.57;8.18;;;18.00;99.90;;;;;;7394333;19;20022;-75
2022/06/17 08:11:37;;;;;;;10.88;7.38;;;17.90;99.90;;;;;;7393197;19;20007;-75
2022/06/17 08:14:06;;;;;;;10.93;7.15;;;18.00;99.90;;;;;;7393628;19;20018;-75
2022/06/17 08:16:36;;;;;;;11.30;7.50;;;17.90;99.90;;;;;;7394966;19;20086;-74
2022/06/17 08:19:09;;;;;;;11.88;7.03;;;17.90;99.90;;;;;;7394870;19;20021;-76
2022/06/17 08:21:38;;;;;;;10.68;5.93;;;18.00;99.90;;;;;;7393306;19;20015;-76
2022/06/17 08:24:08;;;;;;;11.13;7.53;;;18.10;99.90;;;;;;7392555;19;20010;-76
2022/06/17 08:26:37;;;;;;;13.48;8.35;;;18.30;99.90;;;;;;7397061;19;20011;-76
2022/06/17 08:29:06;;;;;;;11.35;6.50;;;18.20;99.90;;;;;;7393607;19;20023;-76
2022/06/17 08:31:35;;;;;;;19.48;8.60;;;18.10;99.90;;;;;;7393663;19;20027;-76
2022/06/17 08:34:04;;;;;;;16.80;8.18;;;18.50;99.90;;;;;;7396182;19;20010;-76
2022/06/17 08:36:35;;;;;;;11.07;6.70;;;18.60;99.90;;;;;;7392365;19;20053;-76
2022/06/17 08:39:09;;;;;;;8.70;6.47;;;18.70;99.90;;;;;;7394106;19;20415;-76
2022/06/17 08:41:46;;;;;;;9.02;6.72;;;18.70;99.90;;;;;;7393925;19;20490;-75
2022/06/17 08:44:39;;;;;;;9.63;6.15;;;18.80;99.90;;;;;;7396422;19;20011;-76
2022/06/17 08:47:19;;;;;;;8.63;6.18;;;18.60;99.90;;;;;;7392480;19;20014;-76
2022/06/17 08:50:09;;;;;;;10.07;6.18;;;18.70;99.90;;;;;;7395166;19;20341;-76
2022/06/17 08:52:59;;;;;;;10.55;7.13;;;18.90;99.90;;;;;;7387781;19;20052;-76
2022/06/17 08:55:37;;;;;;;9.02;6.90;;;18.90;99.90;;;;;;7395956;19;20022;-76
2022/06/17 08:58:15;;;;;;;10.02;6.55;;;19.00;99.90;;;;;;7391007;19;20476;-76
2022/06/17 09:00:50;;;;;;;11.70;6.63;;;19.10;99.90;;;;;;7396495;19;20139;-76
2022/06/17 09:03:38;;;;;;;10.20;6.85;;;19.20;99.90;;;;;;7393334;19;20032;-76
2022/06/17 09:06:19;;;;;;;8.77;6.60;;;19.20;99.90;;;;;;7397421;19;20019;-76
2022/06/17 09:09:04;;;;;;;9.63;5.93;;;19.30;99.90;;;;;;7393467;19;20029;-75
2022/06/17 09:11:41;;;;;;;8.65;6.30;;;19.50;99.90;;;;;;7394828;19;20484;-75
2022/06/17 09:14:29;;;;;;;9.93;5.97;;;19.50;99.90;;;;;;7392250;19;20018;-76
2022/06/17 09:17:06;;;;;;;9.40;5.22;;;19.70;99.90;;;;;;7400005;19;20022;-75
2022/06/17 09:19:40;;;;;;;10.23;6.10;;;19.90;99.90;;;;;;7407072;19;20398;-75
2022/06/17 09:22:14;;;;;;;8.23;5.50;;;19.80;99.30;;;;;;7406780;19;20031;-76
2022/06/17 09:24:47;;;;;;;7.32;5.25;;;19.90;99.00;;;;;;7409783;19;20488;-76
2022/06/17 09:27:22;;;;;;;;;;;19.80;99.20;;;;;;7406132;19;20022;-75
2022/06/17 09:29:57;;;;;;;7.47;6.40;;;19.90;99.70;;;;;;7409692;19;19915;-75
2022/06/17 09:32:31;;;;;;;7.13;6.00;;;19.80;99.40;;;;;;7406525;19;20015;-75
2022/06/17 09:35:06;;;;;;;7.53;6.03;;;19.80;99.50;;;;;;7409248;19;20397;-76
2022/06/17 09:37:40;;;;;;;10.68;5.88;;;19.90;99.50;;;;;;7405966;19;20031;-76
2022/06/17 09:40:17;;;;;;;8.73;5.72;;;19.90;99.90;;;;;;7403974;19;20093;-76
2022/06/17 09:42:51;;;;;;;8.52;6.10;;;20.00;99.80;;;;;;7405263;19;20011;-76
2022/06/17 09:45:27;;;;;;;8.68;6.10;;;20.20;99.80;;;;;;7405884;19;20691;-75
2022/06/17 09:48:04;;;;;;;8.73;6.25;;;20.10;99.80;;;;;;7406072;19;20014;-76
2022/06/17 09:50:39;;;;;;;9.93;6.57;;;20.10;99.90;;;;;;7405675;19;20085;-76
2022/06/17 09:53:11;;;;;;;;;;;20.00;99.90;;;;;;7406993;19;20018;-76
2022/06/17 09:55:46;;;;;;;8.50;6.05;;;20.10;99.90;;;;;;7406134;19;19926;-75
2022/06/17 09:58:25;;;;;;;11.52;6.10;;;20.40;99.70;;;;;;7405892;19;20019;-76
2022/06/17 10:00:58;;;;;;;9.93;5.63;;;20.10;99.20;;;;;;7405617;19;20022;-75
2022/06/17 10:03:30;;;;;;;9.05;5.38;;;20.40;99.40;;;;;;7407059;19;20036;-75
2022/06/17 10:06:07;;;;;;;10.68;6.25;;;20.30;99.60;;;;;;7403857;19;20427;-74
2022/06/17 10:08:50;;;;;;;7.80;4.88;;;20.50;99.50;;;;;;7402806;19;20483;-70
2022/06/17 10:11:30;;;;;;;7.63;5.00;;;20.70;98.60;;;;;;7407478;19;20018;-73
2022/06/17 10:14:09;;;;;;;5.75;4.90;;;20.70;98.40;;;;;;7407883;19;20022;-74
2022/06/17 10:19:38;;;;;;;8.60;5.07;;;20.90;97.70;;;;;;7406439;19;20018;-77
2022/06/17 10:22:28;;;;;;;7.28;5.35;;;21.00;97.30;;;;;;7243460;19;20070;-74
2022/06/17 10:25:17;;;;;;;7.82;5.25;;;20.70;97.30;;;;;;7397271;19;20015;-73
2022/06/17 10:28:04;;;;;;;9.18;5.25;;;20.80;97.10;;;;;;7395499;19;20101;-74
2022/06/17 10:30:42;;;;;;;8.73;5.70;;;20.80;97.00;;;;;;7390653;19;20022;-81
2022/06/17 10:33:14;;;;;;;7.80;4.93;;;20.70;97.50;;;;;;7389230;19;20007;-74
2022/06/17 10:35:45;;;;;;;6.28;4.90;;;20.60;97.10;;;;;;7396399;19;20022;-78
2022/06/17 10:38:20;;;;;;;8.32;5.07;;;20.70;97.40;;;;;;7393583;19;20025;-72
2022/06/17 10:40:49;;;;;;;10.52;5.53;;;20.70;97.40;;;;;;7397546;19;20067;-70
2022/06/17 10:43:24;;;;;;;8.35;4.97;;;20.60;97.90;;;;;;7393243;19;20089;-76
2022/06/17 10:45:55;;;;;;;11.60;4.78;;;20.80;98.20;;;;;;7396334;19;20018;-73
2022/06/17 10:48:35;;;;;;;6.32;4.57;;;20.90;97.90;;;;;;7387671;19;20637;-76
2022/06/17 10:51:06;;;;;;;6.93;4.80;;;20.90;97.70;;;;;;7390407;19;20025;-75
2022/06/17 10:53:44;;;;;;;9.00;4.65;;;20.60;98.20;;;;;;7387344;19;20026;-72
2022/06/17 10:56:20;;;;;;;9.70;5.30;;;20.70;98.00;;;;;;7390428;19;20021;-71
2022/06/17 10:59:06;;;;;;;8.30;5.13;;;20.90;98.20;;;;;;7392338;19;20019;-72
2022/06/17 11:01:53;;;;;;;9.10;5.78;;;20.70;97.60;;;;;;7388964;19;20014;-72
2022/06/17 11:04:27;;;;;;;8.57;5.72;;;20.70;97.50;;;;;;7396408;19;20081;-72
2022/06/17 11:07:01;;;;;;;10.80;6.22;;;20.80;97.80;;;;;;7387798;19;20035;-71
2022/06/17 11:09:35;;;;;;;;;;;20.70;97.70;;;;;;7391461;19;20035;-70
2022/06/17 11:12:06;;;;;;;10.57;5.93;;;20.70;97.60;;;;;;7373074;19;19919;-72
2022/06/17 11:14:50;;;;;;;8.95;5.88;;;19.80;97.60;;;;;;7377815;19;20022;-74
2022/06/17 11:17:22;;;;;;;8.75;5.90;;;20.80;98.00;;;;;;7378854;19;20036;-73
2022/06/17 11:19:54;;;;;;;12.45;5.70;;;21.00;97.90;;;;;;7378244;19;20023;-73
2022/06/17 11:22:31;;;;;;;11.75;6.85;;;21.00;97.80;;;;;;7375109;19;20025;-74
2022/06/17 11:25:06;;;;;;;11.60;6.03;;;21.00;97.70;;;;;;7379935;19;20022;-74
2022/06/17 11:27:41;;;;;;;9.10;5.45;;;21.30;97.80;;;;;;7381663;19;20025;-73
2022/06/17 11:30:25;;;;;;;10.63;6.60;;;22.70;98.30;;;;;;7378044;19;20018;-74
2022/06/17 11:32:55;;;;;;;11.50;6.35;;;21.50;97.60;;;;;;7380304;19;20088;-74
2022/06/17 11:35:31;;;;;;;10.27;5.85;;;21.60;97.00;;;;;;7378380;19;20104;-73
2022/06/17 11:38:03;;;;;;;11.95;5.97;;;21.70;97.60;;;;;;7372903;19;20018;-73
2022/06/17 11:40:36;;;;;;;9.82;7.00;;;21.80;97.20;;;;;;7390243;19;20349;-74
2022/06/17 11:43:09;;;;;;;7.85;6.32;;;21.70;96.10;;;;;;7390831;19;20093;-74
2022/06/17 11:45:45;;;;;;;10.07;5.82;;;21.90;96.40;;;;;;7391955;19;20025;-74
2022/06/17 11:48:18;;;;;;;10.18;5.72;;;22.10;96.40;;;;;;7396409;19;20024;-74
2022/06/17 11:51:04;;;;;;;8.82;5.47;;;22.10;96.80;;;;;;7390573;19;20514;-75
2022/06/17 11:53:34;;;;;;;9.95;5.28;;;22.30;96.10;;;;;;7391048;19;20018;-74
2022/06/17 11:56:03;;;;;;;6.55;4.60;;;22.40;95.60;;;;;;7341047;19;20069;-75
2022/06/17 11:58:35;;;;;;;10.85;5.68;;;22.20;94.70;;;;;;7390685;19;20018;-75
2022/06/17 12:01:18;;;;;;;7.43;5.43;;;22.20;94.70;;;;;;7393105;19;20019;-75
2022/06/17 12:03:49;;;;;;;9.98;5.10;;;22.40;93.50;;;;;;7393499;19;20015;-77
2022/06/17 12:06:25;;;;;;;7.25;4.95;;;22.50;94.20;;;;;;7390589;19;20021;-77
2022/06/17 12:09:03;;;;;;;7.50;4.97;;;22.40;93.70;;;;;;7383513;19;20488;-77
2022/06/17 12:11:40;;;;;;;7.13;4.97;;;22.30;92.60;;;;;;7396105;19;20020;-77
2022/06/17 12:14:19;;;;;;;8.20;5.53;;;22.50;92.40;;;;;;7396442;19;20043;-77
2022/06/17 12:16:50;;;;;;;7.82;4.80;;;22.80;93.40;;;;;;7398121;19;20371;-77
2022/06/17 12:19:22;;;;;;;8.50;5.60;;;22.50;93.40;;;;;;7392839;19;20025;-78
2022/06/17 12:21:58;;;;;;;12.07;5.32;;;22.60;92.90;;;;;;7393683;19;20401;-84
2022/06/17 12:24:36;;;;;;;7.47;5.05;;;22.50;92.70;;;;;;7396004;19;20112;-83
2022/06/17 12:27:19;;;;;;;10.50;5.60;;;22.60;92.90;;;;;;7394882;19;20496;-82
2022/06/17 12:29:53;;;;;;;8.23;5.50;;;22.60;92.20;;;;;;7395921;19;20040;-87
2022/06/17 12:32:31;;;;;;;8.10;5.40;;;22.80;92.90;;;;;;7397309;19;20010;-81
2022/06/17 12:35:08;;;;;;;7.57;6.07;;;23.40;92.40;;;;;;7395214;19;20022;-83
2022/06/17 12:37:44;;;;;;;9.40;5.82;;;23.40;91.50;;;;;;7396185;19;20090;-83
2022/06/17 12:40:19;;;;;;;7.57;5.00;;;23.70;91.20;;;;;;7393015;19;20065;-84
2022/06/17 12:42:54;;;;;;;7.57;5.13;;;23.70;91.00;;;;;;7393984;19;20006;-84
2022/06/17 12:45:31;;;;;;;9.75;5.18;;;24.00;91.30;;;;;;7393686;19;20038;-83
2022/06/17 12:48:14;;;;;;;7.28;5.63;;;23.70;90.70;;;;;;7395120;19;20078;-82
2022/06/17 12:53:38;;;;;;;10.68;5.65;;;23.70;89.30;;;;;;7394013;19;20043;-83
2022/06/17 12:56:18;;;;;;;9.32;5.40;;;23.80;88.20;;;;;;7393601;19;20015;-82
2022/06/17 12:59:38;;;;;;;10.82;5.72;;;24.00;89.90;;;;;;7393770;19;20031;-83
2022/06/17 13:02:12;;;;;;;7.15;4.50;;;24.10;89.90;;;;;;7390843;19;20045;-82
2022/06/17 13:05:06;;;;;;;7.45;5.50;;;24.40;90.80;;;;;;7394177;19;20070;-83
2022/06/17 13:08:08;;;;;;;8.23;5.70;;;24.50;87.30;;;;;;7393894;19;20074;-84
2022/06/17 13:10:43;;;;;;;9.15;5.82;;;24.50;85.50;;;;;;7391568;19;20023;-84
2022/06/17 13:13:46;;;;;;;8.95;6.07;;;24.40;84.50;;;;;;7392699;19;20018;-83
2022/06/17 13:16:22;;;;;;;8.82;5.10;;;24.50;82.50;;;;;;7392710;19;20085;-83
2022/06/17 13:18:58;;;;;;;8.00;5.13;;;24.50;85.60;;;;;;7392752;19;20044;-83
2022/06/17 13:21:34;;;;;;;8.43;5.38;;;24.60;86.90;;;;;;7393505;19;20029;-83
2022/06/17 13:24:14;;;;;;;6.75;6.05;;;24.30;86.30;;;;;;7393337;19;20494;-84
2022/06/17 13:26:49;;;;;;;9.40;5.28;;;24.30;85.40;;;;;;7392683;19;20011;-83
2022/06/17 13:29:28;;;;;;;8.20;5.53;;;24.20;87.10;;;;;;7392546;19;20035;-82
2022/06/17 13:32:02;;;;;;;7.82;5.30;;;23.80;88.40;;;;;;7392476;19;20017;-83
2022/06/17 13:34:37;;;;;;;10.00;5.35;;;23.90;88.50;;;;;;7392925;19;20487;-83
2022/06/17 13:37:14;;;;;;;8.30;5.30;;;23.80;88.50;;;;;;7395746;19;20017;-83
2022/06/17 13:39:48;;;;;;;9.73;5.90;;;23.80;89.60;;;;;;7397056;19;20472;-83
2022/06/17 13:42:19;;;;;;;10.25;5.00;;;23.80;88.50;;;;;;7394903;19;20479;-82
2022/06/17 13:44:58;;;;;;;6.88;5.15;;;23.60;89.60;;;;;;7393837;19;20023;-83
2022/06/17 13:47:39;;;;;;;7.80;4.68;;;23.60;89.90;;;;;;7401458;19;20014;-82
2022/06/17 13:50:28;;;;;;;7.82;5.53;;;23.60;90.10;;;;;;7396553;19;20354;-83
2022/06/17 13:53:08;;;;;;;10.00;5.65;;;23.40;89.10;;;;;;7396935;19;20458;-83
2022/06/17 13:55:49;;;;;;;5.82;4.38;;;23.40;90.10;;;;;;7392758;19;20019;-82
2022/06/17 13:58:24;;;;;;;8.38;4.60;;;23.40;90.20;;;;;;7391568;19;20044;-82
2022/06/17 14:00:55;;;;;;;6.05;4.20;;;23.50;90.40;;;;;;7391659;19;20011;-81
2022/06/17 14:03:48;;;;;;;7.38;4.35;;;23.70;90.50;;;;;;7396809;19;20018;-82
2022/06/17 14:06:20;;;;;;;5.93;4.10;;;23.50;89.50;;;;;;7398905;19;20018;-83
2022/06/17 14:08:53;;;;;;;6.82;4.30;;;23.60;90.10;;;;;;7398669;19;20014;-82
2022/06/17 14:11:37;;;;;;;6.60;3.75;;;23.60;89.30;;;;;;7397181;19;20018;-82
2022/06/17 14:14:36;;;;;;;8.07;3.53;;;23.70;89.50;;;;;;7402100;19;20018;-82
2022/06/17 14:17:11;;;;;;;6.07;3.88;;;24.00;86.90;;;;;;7398195;19;20011;-82
2022/06/17 14:19:47;;;;;;;7.80;4.00;;;24.30;89.00;;;;;;7396731;19;20424;-83
2022/06/17 14:22:26;;;;;;;9.25;4.20;;;24.30;86.80;;;;;;7398115;19;20040;-82
2022/06/17 14:25:02;;;;;;;7.18;3.90;;;24.60;88.30;;;;;;7397914;19;20488;-82
2022/06/17 14:28:02;;;;;;;5.88;3.90;;;24.90;86.90;;;;;;7398097;19;20015;-82
2022/06/17 14:30:43;;;;;;;7.25;3.30;;;24.90;86.20;;;;;;7397194;19;20014;-82
2022/06/17 14:33:34;;;;;;;6.60;3.92;;;25.50;81.80;;;;;;7397500;19;20345;-82
2022/06/17 14:36:03;;;;;;;5.95;3.33;;;26.00;79.20;;;;;;7399570;19;20029;-83
2022/06/17 14:38:40;;;;;;;7.22;3.78;;;26.30;78.90;;;;;;7396675;19;20018;-82